Date,TemperatureHighF,TemperatureAvgF,TemperatureLowF,DewpointHighF,DewpointAvgF,DewpointLowF,HumidityHigh,HumidityAvg,HumidityLow,PressureMaxIn,PressureMinIn,WindSpeedMaxMPH,WindSpeedAvgMPH,GustSpeedMaxMPH,PrecipitationSumIn
2013-3-1,63.9,50.9,41.0,50.6,40.9,30.5,87,69,60,30.03,29.88,18,3,18,0.04
2013-3-2,54.7,42.7,34.5,41.6,32.5,26.6,84,67,62,30.12,29.97,17,4,17,0.04
2013-3-3,58.3,43.6,30.2,44.9,33.2,22.5,82,67,61,30.15,30.00,13,3,13,0.04
2013-3-4,69.1,55.9,36.5,55.1,47.2,33.3,100,74,61,30.03,29.83,15,5,15,0.04
2013-3-5,77.2,64.1,48.0,63.2,55.0,39.4,90,73,60,30.03,29.83,18,5,18,0.04
2013-3-6,65.5,51.3,38.8,51.8,39.7,29.2,81,64,60,30.18,30.03,16,3,16,0.04
2013-3-7,65.8,49.9,37.0,52.3,39.4,29.4,84,68,60,30.21,30.09,11,2,11,0.04
2013-3-8,72.0,54.6,37.9,57.3,45.3,34.5,93,72,60,30.18,30.06,11,2,11,0.04
2013-3-9,71.1,64.4,49.5,57.9,53.4,46.7,95,68,61,30.06,29.94,17,6,17,0.00
2013-3-10,66.7,66.4,65.8,66.0,65.0,64.2,100,95,92,29.80,29.77,13,6,13,0.04
2013-3-11,65.8,57.0,46.6,65.8,52.0,39.1,100,84,66,29.88,29.68,17,4,17,0.00
2013-3-12,69.3,53.4,40.3,55.1,44.0,36.4,90,71,61,30.06,29.88,12,2,13,0.00
2013-3-13,69.4,54.8,40.6,55.2,44.7,36.5,87,70,60,30.24,30.06,15,3,18,0.00
2013-3-14,69.1,46.9,38.3,54.9,35.5,27.8,83,64,59,30.30,30.18,13,1,13,0.00
2013-3-15,74.7,58.8,41.2,59.9,49.4,37.9,95,72,60,30.18,30.00,15,4,15,0.00
2013-3-16,80.1,66.2,50.0,65.4,57.1,46.6,100,74,59,30.00,29.85,16,5,16,0.00
2013-3-17,65.1,59.5,56.3,62.9,56.6,53.7,99,90,82,29.85,29.83,8,0,8,0.00
2013-3-18,67.6,67.6,67.6,65.9,65.9,65.9,94,94,94,29.77,29.74,5,5,5,0.00
2013-3-20,70.2,59.1,44.6,56.1,46.7,35.0,76,63,60,30.00,29.85,15,4,15,0.04
2013-3-21,70.3,55.3,41.2,56.3,43.7,32.6,79,65,60,29.94,29.77,13,3,13,0.00
2013-3-22,70.7,63.5,55.4,61.9,54.0,43.4,91,72,61,29.77,29.68,14,6,14,0.04
2013-3-23,64.4,64.2,63.9,61.5,60.7,59.0,91,88,83,29.74,29.65,13,6,13,0.00
2013-3-26,45.1,42.0,39.2,33.7,31.0,28.4,65,65,64,30.24,30.21,4,0,4,0.16
2013-3-27,64.4,48.4,33.4,51.1,38.0,26.6,84,68,60,30.33,30.15,13,3,13,0.00
2013-3-28,72.1,53.9,36.1,57.3,44.7,32.1,95,72,60,30.24,30.12,14,3,14,0.00
2013-3-29,74.1,57.2,42.6,59.4,49.3,39.3,100,77,60,30.21,30.09,11,2,11,0.00
2013-3-30,81.0,65.6,49.8,66.3,57.0,47.0,94,75,59,30.09,29.91,10,3,11,0.00
2013-3-31,84.4,67.9,56.8,70.2,61.6,54.2,100,82,60,29.94,29.74,18,3,18,0.16